sensor_id;sensor_type;location;lat;lon;timestamp;pressure;altitude;pressure_sealevel;temperature;humidity
6349;BME280;3207;42.648;23.406;2024-01-16T00:01:21;99078.91;;;4.40;nan
6349;BME280;3207;42.648;23.406;2024-01-16T01:10:24;99209.28;;;4.52;nan
6349;BME280;3207;42.648;23.406;2024-01-16T01:15:20;99203.28;;;4.51;nan
6349;BME280;3207;42.648;23.406;2024-01-16T01:30:11;99233.88;;;4.73;nan
6349;BME280;3207;42.648;23.406;2024-01-16T01:52:15;99239.56;;;4.35;nan
6349;BME280;3207;42.648;23.406;2024-01-16T03:23:38;99330.28;;;4.62;nan
6349;BME280;3207;42.648;23.406;2024-01-16T06:27:31;99583.41;;;3.76;nan
6349;BME280;3207;42.648;23.406;2024-01-16T07:46:12;99662.44;;;22.09;nan
6349;BME280;3207;42.648;23.406;2024-01-16T07:48:39;99660.47;;;22.99;nan
6349;BME280;3207;42.648;23.406;2024-01-16T07:51:07;99662.28;;;23.86;nan
6349;BME280;3207;42.648;23.406;2024-01-16T07:53:34;99673.19;;;24.04;nan
6349;BME280;3207;42.648;23.406;2024-01-16T07:56:02;99654.06;;;23.94;nan
6349;BME280;3207;42.648;23.406;2024-01-16T07:58:29;99677.91;;;24.02;nan
6349;BME280;3207;42.648;23.406;2024-01-16T08:00:56;99676.06;;;23.96;nan
6349;BME280;3207;42.648;23.406;2024-01-16T08:03:22;99687.75;;;24.28;nan
6349;BME280;3207;42.648;23.406;2024-01-16T08:05:49;99686.25;;;24.65;nan
6349;BME280;3207;42.648;23.406;2024-01-16T08:08:18;99682.72;;;25.54;nan
6349;BME280;3207;42.648;23.406;2024-01-16T08:10:45;99707.41;;;26.62;nan
6349;BME280;3207;42.648;23.406;2024-01-16T08:13:12;99671.56;;;27.23;nan
6349;BME280;3207;42.648;23.406;2024-01-16T08:15:39;99695.31;;;28.32;nan
6349;BME280;3207;42.648;23.406;2024-01-16T08:18:06;99693.59;;;29.01;nan
6349;BME280;3207;42.648;23.406;2024-01-16T08:20:33;99706.28;;;29.46;nan
6349;BME280;3207;42.648;23.406;2024-01-16T08:22:59;99703.19;;;30.16;nan
6349;BME280;3207;42.648;23.406;2024-01-16T08:25:28;99707.44;;;30.89;nan
6349;BME280;3207;42.648;23.406;2024-01-16T08:27:55;99715.16;;;31.51;nan
6349;BME280;3207;42.648;23.406;2024-01-16T08:30:22;99640.72;;;31.65;nan
6349;BME280;3207;42.648;23.406;2024-01-16T08:32:49;99724.31;;;32.88;nan
6349;BME280;3207;42.648;23.406;2024-01-16T08:35:16;99710.69;;;33.50;nan
6349;BME280;3207;42.648;23.406;2024-01-16T08:37:42;99722.97;;;34.19;nan
6349;BME280;3207;42.648;23.406;2024-01-16T08:40:10;99738.88;;;34.81;nan
6349;BME280;3207;42.648;23.406;2024-01-16T08:42:39;99744.91;;;35.32;nan
6349;BME280;3207;42.648;23.406;2024-01-16T08:45:07;99740.44;;;35.51;nan
6349;BME280;3207;42.648;23.406;2024-01-16T08:47:34;99727.81;;;34.47;nan
6349;BME280;3207;42.648;23.406;2024-01-16T08:50:00;99728.38;;;34.34;nan
6349;BME280;3207;42.648;23.406;2024-01-16T08:52:28;99745.53;;;35.14;nan
6349;BME280;3207;42.648;23.406;2024-01-16T08:54:56;99719.22;;;35.53;nan
6349;BME280;3207;42.648;23.406;2024-01-16T08:57:24;99737.78;;;36.14;nan
6349;BME280;3207;42.648;23.406;2024-01-16T08:59:52;99740.63;;;36.86;nan
6349;BME280;3207;42.648;23.406;2024-01-16T09:02:19;99750.31;;;37.58;nan
6349;BME280;3207;42.648;23.406;2024-01-16T09:04:47;99751.03;;;38.15;nan
6349;BME280;3207;42.648;23.406;2024-01-16T09:07:15;99755.41;;;38.16;nan
6349;BME280;3207;42.648;23.406;2024-01-16T09:09:42;99759.25;;;37.96;nan
6349;BME280;3207;42.648;23.406;2024-01-16T09:12:10;99759.38;;;38.37;nan
6349;BME280;3207;42.648;23.406;2024-01-16T09:14:37;99749.13;;;38.62;nan
6349;BME280;3207;42.648;23.406;2024-01-16T09:17:05;99755.34;;;38.02;nan
6349;BME280;3207;42.648;23.406;2024-01-16T09:19:32;99748.50;;;36.35;nan
6349;BME280;3207;42.648;23.406;2024-01-16T09:21:59;99743.06;;;35.67;nan
6349;BME280;3207;42.648;23.406;2024-01-16T09:24:26;99811.31;;;35.11;nan
6349;BME280;3207;42.648;23.406;2024-01-16T09:26:53;99753.25;;;32.35;nan
6349;BME280;3207;42.648;23.406;2024-01-16T09:29:20;99650.72;;;30.07;nan
6349;BME280;3207;42.648;23.406;2024-01-16T09:31:48;99729.41;;;29.59;nan
6349;BME280;3207;42.648;23.406;2024-01-16T09:34:17;99716.94;;;28.37;nan
6349;BME280;3207;42.648;23.406;2024-01-16T09:36:44;99718.91;;;26.69;nan
6349;BME280;3207;42.648;23.406;2024-01-16T09:39:12;99714.31;;;25.07;nan
6349;BME280;3207;42.648;23.406;2024-01-16T09:41:39;99711.13;;;23.54;nan
6349;BME280;3207;42.648;23.406;2024-01-16T09:44:06;99686.25;;;21.68;nan
6349;BME280;3207;42.648;23.406;2024-01-16T09:46:35;99699.03;;;19.66;nan
6349;BME280;3207;42.648;23.406;2024-01-16T09:51:32;99710.91;;;17.82;nan
6349;BME280;3207;42.648;23.406;2024-01-16T09:53:59;99681.94;;;18.84;nan
6349;BME280;3207;42.648;23.406;2024-01-16T09:56:28;99692.50;;;19.92;nan
6349;BME280;3207;42.648;23.406;2024-01-16T09:59:02;99682.13;;;20.34;nan
6349;BME280;3207;42.648;23.406;2024-01-16T10:01:31;99705.13;;;21.15;nan
6349;BME280;3207;42.648;23.406;2024-01-16T10:03:59;99697.31;;;21.29;nan
6349;BME280;3207;42.648;23.406;2024-01-16T10:08:55;99729.38;;;21.84;nan
6349;BME280;3207;42.648;23.406;2024-01-16T10:11:22;99648.06;;;21.54;nan
6349;BME280;3207;42.648;23.406;2024-01-16T10:13:49;99706.50;;;21.90;nan
6349;BME280;3207;42.648;23.406;2024-01-16T10:16:16;99692.13;;;21.84;nan
6349;BME280;3207;42.648;23.406;2024-01-16T10:21:20;99684.50;;;20.00;nan
6349;BME280;3207;42.648;23.406;2024-01-16T10:23:49;99692.88;;;19.89;nan
6349;BME280;3207;42.648;23.406;2024-01-16T10:26:17;99691.88;;;18.03;nan
6349;BME280;3207;42.648;23.406;2024-01-16T10:31:12;99689.56;;;15.46;nan
6349;BME280;3207;42.648;23.406;2024-01-16T10:33:40;99673.00;;;14.26;nan
6349;BME280;3207;42.648;23.406;2024-01-16T10:48:33;99691.91;;;9.26;nan
6349;BME280;3207;42.648;23.406;2024-01-16T11:00:57;99618.69;;;6.63;nan
6349;BME280;3207;42.648;23.406;2024-01-16T23:50:44;99415.06;;;2.84;nan
